sensor_id;sensor_type;location;lat;lon;timestamp;P1;durP1;ratioP1;P2;durP2;ratioP2
23494;SDS011;26107;50.832;2.950;2023-11-21T00:14:44;13.50;;;3.67;;
23494;SDS011;26107;50.832;2.950;2023-11-21T00:29:47;8.73;;;3.35;;
23494;SDS011;26107;50.832;2.950;2023-11-21T00:44:51;9.63;;;4.68;;
23494;SDS011;26107;50.832;2.950;2023-11-21T00:59:58;9.77;;;5.00;;
23494;SDS011;26107;50.832;2.950;2023-11-21T01:14:59;8.68;;;5.20;;
23494;SDS011;26107;50.832;2.950;2023-11-21T01:30:01;8.23;;;5.43;;
23494;SDS011;26107;50.832;2.950;2023-11-21T01:45:07;11.82;;;5.75;;
23494;SDS011;26107;50.832;2.950;2023-11-21T02:00:09;8.90;;;5.95;;
23494;SDS011;26107;50.832;2.950;2023-11-21T02:15:16;8.70;;;5.15;;
23494;SDS011;26107;50.832;2.950;2023-11-21T02:45:33;9.57;;;6.50;;
23494;SDS011;26107;50.832;2.950;2023-11-21T03:00:45;9.20;;;6.78;;
23494;SDS011;26107;50.832;2.950;2023-11-21T03:15:46;10.00;;;6.87;;
23494;SDS011;26107;50.832;2.950;2023-11-21T03:30:47;9.35;;;6.55;;
23494;SDS011;26107;50.832;2.950;2023-11-21T03:45:48;7.80;;;5.65;;
23494;SDS011;26107;50.832;2.950;2023-11-21T04:00:48;7.57;;;5.70;;
23494;SDS011;26107;50.832;2.950;2023-11-21T04:15:49;8.20;;;5.65;;
23494;SDS011;26107;50.832;2.950;2023-11-21T04:30:52;5.10;;;4.03;;
23494;SDS011;26107;50.832;2.950;2023-11-21T04:45:55;8.18;;;1.67;;
23494;SDS011;26107;50.832;2.950;2023-11-21T05:00:56;4.28;;;1.05;;
23494;SDS011;26107;50.832;2.950;2023-11-21T05:15:57;3.17;;;0.93;;
23494;SDS011;26107;50.832;2.950;2023-11-21T05:30:58;0.98;;;0.90;;
23494;SDS011;26107;50.832;2.950;2023-11-21T05:45:59;3.58;;;1.88;;
23494;SDS011;26107;50.832;2.950;2023-11-21T06:01:00;1.42;;;0.70;;
23494;SDS011;26107;50.832;2.950;2023-11-21T06:16:00;1.98;;;1.67;;
23494;SDS011;26107;50.832;2.950;2023-11-21T06:31:01;6.30;;;2.72;;
23494;SDS011;26107;50.832;2.950;2023-11-21T06:46:05;3.28;;;2.42;;
23494;SDS011;26107;50.832;2.950;2023-11-21T07:01:07;5.38;;;3.33;;
23494;SDS011;26107;50.832;2.950;2023-11-21T07:16:08;4.63;;;3.60;;
23494;SDS011;26107;50.832;2.950;2023-11-21T07:31:12;5.68;;;3.53;;
23494;SDS011;26107;50.832;2.950;2023-11-21T07:46:13;6.60;;;3.67;;
23494;SDS011;26107;50.832;2.950;2023-11-21T08:01:14;5.25;;;3.40;;
23494;SDS011;26107;50.832;2.950;2023-11-21T08:16:17;5.25;;;3.42;;
23494;SDS011;26107;50.832;2.950;2023-11-21T08:31:23;5.22;;;4.10;;
23494;SDS011;26107;50.832;2.950;2023-11-21T08:46:24;3.42;;;2.95;;
23494;SDS011;26107;50.832;2.950;2023-11-21T09:01:25;3.75;;;2.10;;
23494;SDS011;26107;50.832;2.950;2023-11-21T09:16:26;2.75;;;1.88;;
23494;SDS011;26107;50.832;2.950;2023-11-21T09:31:27;3.28;;;2.55;;
23494;SDS011;26107;50.832;2.950;2023-11-21T09:46:31;5.97;;;2.10;;
23494;SDS011;26107;50.832;2.950;2023-11-21T10:01:33;8.13;;;2.17;;
23494;SDS011;26107;50.832;2.950;2023-11-21T10:16:36;2.78;;;1.00;;
23494;SDS011;26107;50.832;2.950;2023-11-21T10:31:39;2.67;;;1.75;;
23494;SDS011;26107;50.832;2.950;2023-11-21T10:46:42;4.25;;;1.30;;
23494;SDS011;26107;50.832;2.950;2023-11-21T11:01:50;15.25;;;2.35;;
23494;SDS011;26107;50.832;2.950;2023-11-21T11:16:54;4.72;;;2.28;;
23494;SDS011;26107;50.832;2.950;2023-11-21T11:32:03;9.95;;;2.47;;
23494;SDS011;26107;50.832;2.950;2023-11-21T11:47:12;5.50;;;2.47;;
23494;SDS011;26107;50.832;2.950;2023-11-21T12:02:17;5.18;;;2.50;;
23494;SDS011;26107;50.832;2.950;2023-11-21T12:17:23;5.68;;;2.42;;
23494;SDS011;26107;50.832;2.950;2023-11-21T12:32:24;9.45;;;2.35;;
23494;SDS011;26107;50.832;2.950;2023-11-21T12:47:25;12.30;;;2.75;;
23494;SDS011;26107;50.832;2.950;2023-11-21T13:02:29;4.70;;;1.35;;
23494;SDS011;26107;50.832;2.950;2023-11-21T13:17:30;5.22;;;1.45;;
23494;SDS011;26107;50.832;2.950;2023-11-21T13:32:31;5.45;;;1.98;;
23494;SDS011;26107;50.832;2.950;2023-11-21T13:47:34;9.55;;;2.85;;
23494;SDS011;26107;50.832;2.950;2023-11-21T14:02:39;6.82;;;1.35;;
23494;SDS011;26107;50.832;2.950;2023-11-21T14:17:43;6.68;;;1.70;;
23494;SDS011;26107;50.832;2.950;2023-11-21T14:32:44;3.17;;;1.55;;
23494;SDS011;26107;50.832;2.950;2023-11-21T14:47:47;15.05;;;2.05;;
23494;SDS011;26107;50.832;2.950;2023-11-21T15:02:56;3.75;;;1.30;;
23494;SDS011;26107;50.832;2.950;2023-11-21T15:17:57;3.80;;;1.10;;
23494;SDS011;26107;50.832;2.950;2023-11-21T15:33:00;3.50;;;0.98;;
23494;SDS011;26107;50.832;2.950;2023-11-21T15:48:03;6.75;;;1.38;;
23494;SDS011;26107;50.832;2.950;2023-11-21T16:03:09;4.53;;;1.17;;
23494;SDS011;26107;50.832;2.950;2023-11-21T16:18:11;6.93;;;1.65;;
23494;SDS011;26107;50.832;2.950;2023-11-21T16:33:12;5.95;;;1.65;;
23494;SDS011;26107;50.832;2.950;2023-11-21T16:48:15;4.05;;;1.67;;
23494;SDS011;26107;50.832;2.950;2023-11-21T17:03:21;4.40;;;1.85;;
23494;SDS011;26107;50.832;2.950;2023-11-21T17:18:21;5.32;;;1.75;;
23494;SDS011;26107;50.832;2.950;2023-11-21T17:33:27;11.45;;;2.28;;
23494;SDS011;26107;50.832;2.950;2023-11-21T17:48:31;8.05;;;2.33;;
23494;SDS011;26107;50.832;2.950;2023-11-21T18:03:37;7.60;;;2.50;;
23494;SDS011;26107;50.832;2.950;2023-11-21T18:18:38;7.00;;;3.35;;
23494;SDS011;26107;50.832;2.950;2023-11-21T18:33:39;8.05;;;3.65;;
23494;SDS011;26107;50.832;2.950;2023-11-21T18:48:39;7.13;;;3.70;;
23494;SDS011;26107;50.832;2.950;2023-11-21T19:03:43;7.88;;;4.07;;
23494;SDS011;26107;50.832;2.950;2023-11-21T19:18:46;7.45;;;4.97;;
23494;SDS011;26107;50.832;2.950;2023-11-21T19:33:49;8.60;;;5.20;;
23494;SDS011;26107;50.832;2.950;2023-11-21T19:48:49;10.93;;;6.07;;
23494;SDS011;26107;50.832;2.950;2023-11-21T20:03:52;7.55;;;6.55;;
23494;SDS011;26107;50.832;2.950;2023-11-21T20:18:53;8.43;;;6.53;;
23494;SDS011;26107;50.832;2.950;2023-11-21T20:33:54;11.15;;;8.02;;
23494;SDS011;26107;50.832;2.950;2023-11-21T20:48:54;16.38;;;11.40;;
23494;SDS011;26107;50.832;2.950;2023-11-21T21:03:55;15.90;;;10.50;;
23494;SDS011;26107;50.832;2.950;2023-11-21T21:18:56;14.88;;;10.43;;
23494;SDS011;26107;50.832;2.950;2023-11-21T21:33:58;16.92;;;10.20;;
23494;SDS011;26107;50.832;2.950;2023-11-21T21:48:59;17.20;;;9.23;;
23494;SDS011;26107;50.832;2.950;2023-11-21T22:04:04;11.07;;;8.05;;
23494;SDS011;26107;50.832;2.950;2023-11-21T22:19:07;13.18;;;8.10;;
23494;SDS011;26107;50.832;2.950;2023-11-21T22:34:07;8.98;;;7.05;;
23494;SDS011;26107;50.832;2.950;2023-11-21T22:49:08;10.88;;;7.93;;
23494;SDS011;26107;50.832;2.950;2023-11-21T23:04:09;12.32;;;7.60;;
23494;SDS011;26107;50.832;2.950;2023-11-21T23:19:12;12.68;;;7.63;;
23494;SDS011;26107;50.832;2.950;2023-11-21T23:34:16;11.98;;;7.28;;
23494;SDS011;26107;50.832;2.950;2023-11-21T23:49:17;11.27;;;7.63;;
